Doddtown, New Jersey
Current Conditions -  °F | °C
As of 2:51 PM on Saturday 25 Oct 2014 (Local Time) from KEWR Reporting Station
Scattered Clouds Scattered Clouds  
Wind Chill: 69°   Ceiling: Unl
Heat Index: 69°   Visibility: 10mi
Dew Point: 42°   Wind: 17mph
Humidity: 38%   Direction: 250°WSW
Pressure: 29.7"   Gusts: 22mph
Location:  40.7716°N, 74.2073°W
Report Text: KEWR 251851Z 25015G19KT 10SM SCT050 SCT250 21/06 A2970 RMK AO2 SLP057 T02060056
Loading
Personal Weather Stations






























Interactive Weather Map
Tropical Storm Tracking
New forecast layout! Learn more

10-Day Weather Forecast

Advertisements
Track Severe Weather on mobile